Time;durP1;ratioP1;P1;durP2;ratioP2;P2;SDS_P1;SDS_P2;PMS_P1;PMS_P2;Temp;Humidity;BMP_temperature;BMP_pressure;BME280_temperature;BME280_humidity;BME280_pressure;Samples;Min_cycle;Max_cycle;Signal;HPM_P1;HPM_P2
2020/12/03 00:01:46;;;;;;;51.20;32.97;;;4.00;99.90;;;;;;5071646;28;20385;-74
2020/12/03 00:04:12;;;;;;;55.17;34.45;;;4.00;99.90;;;;;;5071631;28;20386;-75
2020/12/03 00:06:50;;;;;;;46.58;31.52;;;3.90;99.90;;;;;;5071854;28;20354;-75
2020/12/03 00:09:18;;;;;;;51.08;33.05;;;3.90;99.90;;;;;;5070755;28;20756;-75
2020/12/03 00:11:59;;;;;;;48.50;31.95;;;3.90;99.90;;;;;;5071634;28;20370;-75
2020/12/03 00:14:25;;;;;;;47.58;31.30;;;3.90;99.90;;;;;;5104502;28;20366;-75
2020/12/03 00:16:52;;;;;;;50.70;33.40;;;3.90;99.90;;;;;;5071889;28;20423;-75
2020/12/03 00:19:21;;;;;;;52.45;32.90;;;3.90;99.90;;;;;;5070303;28;20929;-75
2020/12/03 00:21:50;;;;;;;58.08;36.13;;;4.00;99.90;;;;;;5071404;28;20373;-74
2020/12/03 00:24:28;;;;;;;51.15;32.13;;;3.90;99.90;;;;;;5071227;28;20451;-74
2020/12/03 00:26:54;;;;;;;51.35;31.65;;;3.90;99.90;;;;;;5071070;28;20354;-74
2020/12/03 00:29:22;;;;;;;52.35;32.05;;;3.90;99.90;;;;;;5071197;28;20724;-74
2020/12/03 00:31:49;;;;;;;50.25;33.53;;;3.90;99.90;;;;;;5070979;28;20891;-75
2020/12/03 00:34:16;;;;;;;52.95;33.72;;;3.90;99.90;;;;;;5069796;28;20390;-75
2020/12/03 00:36:42;;;;;;;54.83;34.50;;;3.90;99.90;;;;;;5070911;28;20366;-75
2020/12/03 00:39:12;;;;;;;50.63;33.60;;;3.90;99.90;;;;;;5071130;28;20401;-75
2020/12/03 00:41:39;;;;;;;51.42;31.02;;;3.90;99.90;;;;;;5071379;28;20377;-75
2020/12/03 00:44:05;;;;;;;45.25;29.85;;;3.90;99.90;;;;;;5069843;28;20439;-75
2020/12/03 00:46:33;;;;;;;42.80;29.23;;;3.90;99.90;;;;;;5071054;28;20475;-75
2020/12/03 00:49:00;;;;;;;47.35;30.75;;;3.90;99.90;;;;;;5071150;28;20390;-75
2020/12/03 00:51:26;;;;;;;39.92;27.38;;;3.90;99.90;;;;;;5071651;28;20760;-75
2020/12/03 00:53:52;;;;;;;38.42;26.92;;;3.90;99.90;;;;;;5069447;28;20366;-75
2020/12/03 00:56:18;;;;;;;42.45;29.00;;;3.90;99.90;;;;;;5070773;28;20861;-75
2020/12/03 00:58:48;;;;;;;47.85;30.88;;;3.90;99.90;;;;;;5070773;28;20366;-75
2020/12/03 01:01:16;;;;;;;54.08;35.00;;;3.90;99.90;;;;;;5070703;28;20453;-75
2020/12/03 01:03:43;;;;;;;49.80;33.22;;;3.90;99.90;;;;;;5070526;28;20396;-75
2020/12/03 01:06:09;;;;;;;55.05;35.58;;;3.90;99.90;;;;;;5069237;28;20779;-75
2020/12/03 01:08:35;;;;;;;49.95;34.30;;;3.90;99.90;;;;;;5070366;28;20415;-74
2020/12/03 01:11:01;;;;;;;49.17;32.97;;;3.90;99.90;;;;;;5070488;28;20455;-74
2020/12/03 01:13:27;;;;;;;46.33;28.70;;;3.90;99.90;;;;;;5070387;28;20416;-74
2020/12/03 01:15:53;;;;;;;46.47;30.10;;;3.90;99.90;;;;;;5070626;28;20469;-74
2020/12/03 01:18:19;;;;;;;42.60;28.40;;;4.00;99.90;;;;;;5070466;28;20370;-74
2020/12/03 01:20:45;;;;;;;46.55;29.02;;;3.90;99.90;;;;;;5070446;28;20368;-75
2020/12/03 01:23:11;;;;;;;42.92;28.35;;;4.00;99.90;;;;;;5070452;28;20402;-75
2020/12/03 01:25:37;;;;;;;40.13;25.83;;;4.00;99.90;;;;;;5070511;28;20374;-75
2020/12/03 01:28:04;;;;;;;38.28;25.73;;;4.00;99.90;;;;;;5070414;28;20358;-75
2020/12/03 01:30:29;;;;;;;41.47;26.67;;;4.00;99.90;;;;;;5070158;28;20366;-75
2020/12/03 01:32:55;;;;;;;40.22;24.90;;;4.10;99.90;;;;;;5069043;28;20381;-75
2020/12/03 01:35:21;;;;;;;54.25;27.60;;;4.10;99.90;;;;;;5069883;28;20377;-74
2020/12/03 01:37:51;;;;;;;41.53;26.52;;;4.10;99.90;;;;;;5069934;28;20370;-74
2020/12/03 01:40:24;;;;;;;35.20;23.50;;;4.10;99.90;;;;;;5070175;28;20401;-74
2020/12/03 01:42:50;;;;;;;38.58;25.17;;;4.10;99.90;;;;;;5070181;28;20373;-74
2020/12/03 01:45:47;;;;;;;34.00;23.58;;;4.20;99.90;;;;;;5070170;28;20362;-74
2020/12/03 01:48:27;;;;;;;34.63;23.30;;;4.20;99.90;;;;;;5069990;28;21139;-74
2020/12/03 01:50:54;;;;;;;37.88;25.60;;;4.10;99.90;;;;;;5070052;28;20381;-74
2020/12/03 01:53:20;;;;;;;38.15;24.27;;;4.20;99.90;;;;;;5070089;28;20413;-74
2020/12/03 01:55:48;;;;;;;39.90;25.25;;;4.10;99.90;;;;;;5070183;28;20393;-74
2020/12/03 01:58:42;;;;;;;38.63;25.08;;;4.10;99.90;;;;;;5070131;28;20868;-75
2020/12/03 02:01:10;;;;;;;32.22;22.25;;;4.20;99.90;;;;;;5069917;28;20374;-75
2020/12/03 02:03:45;;;;;;;36.42;23.58;;;4.10;99.90;;;;;;5069768;28;20386;-75
2020/12/03 02:06:11;;;;;;;43.05;26.20;;;4.10;99.90;;;;;;5069980;28;20394;-74
2020/12/03 02:08:37;;;;;;;41.30;26.67;;;4.10;99.90;;;;;;5069843;28;20848;-74
2020/12/03 02:11:02;;;;;;;49.55;28.70;;;4.10;99.90;;;;;;5069744;28;20362;-74
2020/12/03 02:13:28;;;;;;;44.97;26.42;;;4.10;99.90;;;;;;5069491;28;20368;-74
2020/12/03 02:15:54;;;;;;;41.83;25.92;;;4.10;99.90;;;;;;5069692;28;20783;-74
2020/12/03 02:18:20;;;;;;;41.75;26.05;;;4.10;99.90;;;;;;5069645;28;20370;-74
2020/12/03 02:20:45;;;;;;;35.58;24.13;;;4.10;99.90;;;;;;5069721;28;20420;-74
2020/12/03 02:23:13;;;;;;;38.45;25.23;;;4.10;99.90;;;;;;5072610;28;20437;-74
2020/12/03 02:25:39;;;;;;;41.28;26.15;;;4.10;99.90;;;;;;5072320;28;20374;-74
2020/12/03 02:28:05;;;;;;;42.60;24.97;;;4.10;99.90;;;;;;5073389;28;20411;-74
2020/12/03 02:30:31;;;;;;;38.03;24.60;;;4.00;99.90;;;;;;5073256;28;20725;-74
2020/12/03 02:32:58;;;;;;;39.45;26.23;;;4.10;99.90;;;;;;5073379;28;20370;-74
2020/12/03 02:35:23;;;;;;;38.97;24.65;;;4.00;99.90;;;;;;5073282;28;20754;-74
2020/12/03 02:37:49;;;;;;;32.97;22.80;;;4.00;99.90;;;;;;5073393;28;20453;-74
2020/12/03 02:40:15;;;;;;;37.50;23.83;;;4.00;99.90;;;;;;5073298;28;20424;-74
2020/12/03 02:42:41;;;;;;;40.17;25.60;;;4.00;99.90;;;;;;5073384;28;20378;-74
2020/12/03 02:45:07;;;;;;;42.92;25.52;;;3.90;99.90;;;;;;5073342;28;20401;-74
2020/12/03 02:47:33;;;;;;;34.72;23.38;;;3.90;99.90;;;;;;5073260;28;20789;-75
2020/12/03 02:49:58;;;;;;;36.33;24.73;;;3.90;99.90;;;;;;5073165;28;20453;-75
2020/12/03 02:52:25;;;;;;;37.50;25.83;;;3.90;99.90;;;;;;5073167;28;20374;-75
2020/12/03 02:54:51;;;;;;;34.75;21.92;;;3.90;99.90;;;;;;5073265;28;20396;-75
2020/12/03 02:57:19;;;;;;;33.40;22.60;;;3.80;99.90;;;;;;5073091;28;20792;-74
2020/12/03 02:59:45;;;;;;;33.92;23.45;;;3.80;99.90;;;;;;5073137;28;20373;-75
2020/12/03 03:02:11;;;;;;;33.45;22.05;;;3.90;99.90;;;;;;5070300;28;20529;-75
2020/12/03 03:04:36;;;;;;;33.30;22.27;;;3.90;99.90;;;;;;5072929;28;20477;-75
2020/12/03 03:07:03;;;;;;;34.22;23.90;;;3.90;99.90;;;;;;5072650;28;20367;-74
2020/12/03 03:09:29;;;;;;;34.85;23.50;;;3.90;99.90;;;;;;5072753;28;20393;-74
2020/12/03 03:11:55;;;;;;;40.33;27.00;;;3.90;99.90;;;;;;5072752;28;20362;-74
2020/12/03 03:14:21;;;;;;;34.45;24.63;;;3.90;99.90;;;;;;5072726;28;20374;-74
2020/12/03 03:16:48;;;;;;;33.90;23.75;;;3.80;99.90;;;;;;5072588;28;20374;-74
2020/12/03 03:19:15;;;;;;;38.50;24.92;;;3.80;99.90;;;;;;5072810;28;20771;-74
2020/12/03 03:21:41;;;;;;;30.92;22.58;;;3.80;99.90;;;;;;5072452;28;20461;-74
2020/12/03 03:24:07;;;;;;;32.25;21.23;;;3.80;99.90;;;;;;5072351;28;20539;-74
2020/12/03 03:26:33;;;;;;;29.48;21.67;;;3.80;99.90;;;;;;5071032;28;20402;-74
2020/12/03 03:28:59;;;;;;;33.65;21.77;;;3.80;99.90;;;;;;5072445;28;20377;-74
2020/12/03 03:31:25;;;;;;;31.48;21.55;;;3.80;99.90;;;;;;5072247;28;20489;-74
2020/12/03 03:33:51;;;;;;;30.27;21.90;;;3.80;99.90;;;;;;5071407;28;20848;-74
2020/12/03 03:36:17;;;;;;;32.33;22.65;;;3.80;99.90;;;;;;5072101;28;20373;-74
2020/12/03 03:38:44;;;;;;;32.92;23.35;;;3.80;99.90;;;;;;5072530;28;20366;-74
2020/12/03 03:41:10;;;;;;;33.67;24.02;;;3.80;99.90;;;;;;5072217;28;20374;-74
2020/12/03 03:43:36;;;;;;;33.80;23.23;;;3.80;99.90;;;;;;5072355;28;20405;-74
2020/12/03 03:46:02;;;;;;;30.40;22.52;;;3.80;99.90;;;;;;5072581;28;20775;-75
2020/12/03 03:48:28;;;;;;;32.20;21.80;;;3.80;99.90;;;;;;5072358;28;20379;-75
2020/12/03 03:50:54;;;;;;;32.60;22.43;;;3.80;99.90;;;;;;5072225;28;20362;-75
2020/12/03 03:53:20;;;;;;;30.08;21.63;;;3.80;99.90;;;;;;5072278;28;20377;-75
2020/12/03 03:55:45;;;;;;;28.92;22.27;;;3.80;99.90;;;;;;5072090;28;20366;-74
2020/12/03 03:58:11;;;;;;;33.78;22.40;;;3.80;99.90;;;;;;5071914;28;20893;-74
2020/12/03 04:00:44;;;;;;;32.97;22.80;;;3.80;99.90;;;;;;5071742;28;20374;-74
2020/12/03 04:03:13;;;;;;;32.55;22.90;;;3.80;99.90;;;;;;5071772;28;20365;-74
2020/12/03 04:05:43;;;;;;;36.00;23.63;;;3.80;99.90;;;;;;5071285;28;20359;-74
2020/12/03 04:08:09;;;;;;;35.42;23.90;;;3.80;99.90;;;;;;5071496;28;20358;-74
2020/12/03 04:10:35;;;;;;;32.75;22.50;;;3.80;99.90;;;;;;5071579;28;20354;-74
2020/12/03 04:13:01;;;;;;;32.33;23.50;;;3.80;99.90;;;;;;5071573;28;20381;-74
2020/12/03 04:15:27;;;;;;;26.83;19.13;;;3.80;99.90;;;;;;5071558;28;20366;-74
2020/12/03 04:17:53;;;;;;;27.13;19.75;;;3.80;99.90;;;;;;5071612;28;20359;-74
2020/12/03 04:20:19;;;;;;;31.58;22.27;;;3.80;99.90;;;;;;5071744;28;20362;-74
2020/12/03 04:22:45;;;;;;;32.88;22.48;;;3.80;99.90;;;;;;5071533;28;20373;-74
2020/12/03 04:25:12;;;;;;;30.67;22.50;;;3.70;99.90;;;;;;5071083;28;20857;-74
2020/12/03 04:27:38;;;;;;;29.10;20.67;;;3.70;99.90;;;;;;5071346;28;20442;-74
2020/12/03 04:30:05;;;;;;;27.75;19.05;;;3.70;99.90;;;;;;5071418;28;20847;-74
2020/12/03 04:32:31;;;;;;;37.22;20.48;;;3.70;99.90;;;;;;5070707;28;20394;-74
2020/12/03 04:34:57;;;;;;;28.85;19.75;;;3.70;99.90;;;;;;5071325;28;20397;-74
2020/12/03 04:37:23;;;;;;;26.23;18.08;;;3.70;99.90;;;;;;5071179;28;20398;-75
2020/12/03 04:39:49;;;;;;;27.23;19.27;;;3.70;99.90;;;;;;5071247;28;20721;-75
2020/12/03 04:42:36;;;;;;;25.63;18.40;;;3.70;99.90;;;;;;5070984;28;20370;-75
2020/12/03 04:45:46;;;;;;;32.60;22.30;;;3.80;99.90;;;;;;5069525;28;20418;-75
2020/12/03 04:48:31;;;;;;;28.80;19.35;;;3.80;99.90;;;;;;5068532;28;20424;-75
2020/12/03 04:51:11;;;;;;;32.05;20.30;;;3.80;99.90;;;;;;5071319;28;20366;-75
2020/12/03 04:53:41;;;;;;;28.33;19.83;;;3.70;99.90;;;;;;5071082;28;20877;-74
2020/12/03 04:56:28;;;;;;;26.48;19.77;;;3.80;99.90;;;;;;5070934;28;20601;-74
2020/12/03 04:59:20;;;;;;;29.85;20.10;;;3.70;99.90;;;;;;5070953;28;20374;-74
2020/12/03 05:01:54;;;;;;;29.05;19.65;;;3.70;99.90;;;;;;5070867;28;20373;-74
2020/12/03 05:05:11;;;;;;;28.60;19.95;;;3.80;99.90;;;;;;5070594;28;20390;-74
2020/12/03 05:07:37;;;;;;;27.77;18.93;;;3.80;99.90;;;;;;5057996;28;20419;-74
2020/12/03 05:10:25;;;;;;;30.17;20.27;;;3.80;99.90;;;;;;5070943;28;20370;-74
2020/12/03 05:12:52;;;;;;;26.25;18.52;;;3.90;99.90;;;;;;5070536;28;20910;-74
2020/12/03 05:15:20;;;;;;;31.75;21.05;;;3.90;99.90;;;;;;5070453;28;20370;-75
2020/12/03 05:18:31;;;;;;;29.08;20.58;;;4.00;99.90;;;;;;5070696;28;20417;-74
2020/12/03 05:21:01;;;;;;;30.13;20.95;;;4.00;99.90;;;;;;5070595;28;20366;-75
2020/12/03 05:23:29;;;;;;;32.40;23.20;;;4.00;99.90;;;;;;5070416;28;20752;-74
2020/12/03 05:25:57;;;;;;;30.27;22.85;;;4.00;99.90;;;;;;5070610;28;20838;-74
2020/12/03 05:28:26;;;;;;;27.10;19.60;;;4.10;99.90;;;;;;5069313;28;20374;-74
2020/12/03 05:30:55;;;;;;;29.60;20.30;;;4.10;99.90;;;;;;5070131;28;20439;-74
2020/12/03 05:33:22;;;;;;;29.33;19.98;;;4.10;99.90;;;;;;5070326;28;20435;-74
2020/12/03 05:35:49;;;;;;;28.60;19.98;;;4.10;99.90;;;;;;5070248;28;20366;-74
2020/12/03 05:38:18;;;;;;;27.95;20.27;;;4.10;99.90;;;;;;5070431;28;20378;-74
2020/12/03 05:40:53;;;;;;;25.88;18.45;;;4.10;99.90;;;;;;5102724;28;20467;-74
2020/12/03 05:43:20;;;;;;;26.40;19.30;;;4.10;99.90;;;;;;5070141;28;20912;-74
2020/12/03 05:45:48;;;;;;;30.40;22.13;;;4.10;99.90;;;;;;5070160;28;20402;-74
2020/12/03 05:48:17;;;;;;;29.88;20.10;;;4.10;99.90;;;;;;5070160;28;20450;-75
2020/12/03 05:50:43;;;;;;;29.53;20.70;;;4.10;99.90;;;;;;5070109;28;20449;-75
2020/12/03 05:53:15;;;;;;;26.55;18.98;;;4.10;99.90;;;;;;5070173;28;20782;-75
2020/12/03 05:55:41;;;;;;;27.33;20.23;;;4.10;99.90;;;;;;5070008;28;20770;-75
2020/12/03 05:58:26;;;;;;;31.27;21.00;;;4.10;99.90;;;;;;5067880;28;20413;-75
2020/12/03 06:01:23;;;;;;;26.35;19.95;;;4.20;99.90;;;;;;5068609;28;20381;-75
2020/12/03 06:03:59;;;;;;;27.92;19.88;;;4.10;99.90;;;;;;5069846;28;20780;-75
2020/12/03 06:06:31;;;;;;;29.20;21.83;;;4.20;99.90;;;;;;5070043;28;20377;-75
2020/12/03 06:09:34;;;;;;;36.25;21.98;;;4.20;99.90;;;;;;5069769;28;20350;-74
2020/12/03 06:12:19;;;;;;;29.98;21.17;;;4.20;99.90;;;;;;5069975;28;20362;-75
2020/12/03 06:14:48;;;;;;;29.33;21.40;;;4.20;99.90;;;;;;5070017;28;20365;-75
2020/12/03 06:17:38;;;;;;;27.67;20.15;;;4.20;99.90;;;;;;5070005;28;20401;-75
2020/12/03 06:20:22;;;;;;;29.13;21.25;;;4.10;99.90;;;;;;5069895;28;20845;-75
2020/12/03 06:23:36;;;;;;;33.25;23.00;;;4.10;99.90;;;;;;5069908;28;20838;-75
2020/12/03 06:26:13;;;;;;;28.67;21.30;;;4.10;99.90;;;;;;5067613;28;20868;-75
2020/12/03 06:29:02;;;;;;;33.20;25.65;;;4.20;99.90;;;;;;5069998;28;20714;-75
2020/12/03 06:31:54;;;;;;;72.95;33.42;;;4.10;99.90;;;;;;5069506;28;20402;-74
2020/12/03 06:34:32;;;;;;;42.00;33.67;;;4.10;99.90;;;;;;5069751;28;20378;-74
2020/12/03 06:37:02;;;;;;;37.80;27.58;;;4.10;99.90;;;;;;5069455;28;20412;-74
2020/12/03 06:39:37;;;;;;;33.97;25.48;;;4.10;99.90;;;;;;5068154;28;20400;-74
2020/12/03 06:42:17;;;;;;;36.05;25.17;;;4.10;99.90;;;;;;5069806;28;20398;-74
2020/12/03 06:44:58;;;;;;;34.80;24.97;;;4.10;99.90;;;;;;5068087;28;20443;-74
2020/12/03 06:47:47;;;;;;;33.40;23.67;;;4.10;99.90;;;;;;5069559;28;20768;-74
2020/12/03 06:50:32;;;;;;;31.90;23.33;;;4.20;99.90;;;;;;5069141;28;20366;-74
2020/12/03 06:53:39;;;;;;;31.70;23.67;;;4.20;99.90;;;;;;5069486;28;20439;-75
2020/12/03 06:56:31;;;;;;;35.00;24.30;;;4.20;99.90;;;;;;5061218;28;20868;-75
2020/12/03 06:59:13;;;;;;;40.25;27.05;;;4.20;99.90;;;;;;5069077;28;20374;-75
2020/12/03 07:01:51;;;;;;;36.73;24.13;;;4.30;99.90;;;;;;5069455;28;20427;-75
2020/12/03 07:04:41;;;;;;;37.95;27.17;;;4.30;99.90;;;;;;5069554;28;20393;-75
2020/12/03 07:07:44;;;;;;;42.50;28.75;;;4.40;99.90;;;;;;5069259;28;20382;-75
2020/12/03 07:10:40;;;;;;;46.00;30.08;;;4.40;99.90;;;;;;5072925;28;20370;-75
2020/12/03 07:13:35;;;;;;;41.65;28.50;;;4.50;99.90;;;;;;5105416;28;20378;-75
2020/12/03 07:16:12;;;;;;;44.97;29.77;;;4.50;99.90;;;;;;5072741;28;20370;-75
2020/12/03 07:19:13;;;;;;;38.03;27.17;;;4.50;99.90;;;;;;5072713;28;20867;-75
2020/12/03 07:22:05;;;;;;;40.10;27.05;;;4.50;99.90;;;;;;5072910;28;20904;-75
2020/12/03 07:24:34;;;;;;;41.13;26.13;;;4.60;99.90;;;;;;5071476;28;20791;-75
2020/12/03 07:27:10;;;;;;;40.40;27.13;;;4.70;99.90;;;;;;5072561;28;20922;-75
2020/12/03 07:29:45;;;;;;;38.33;26.00;;;4.70;99.90;;;;;;5072564;28;20378;-75
2020/12/03 07:32:55;;;;;;;39.13;25.38;;;4.70;99.90;;;;;;5104953;28;20729;-75
2020/12/03 07:35:47;;;;;;;40.10;25.67;;;4.70;99.90;;;;;;5072679;28;20726;-75
2020/12/03 07:38:24;;;;;;;37.80;25.17;;;4.80;99.90;;;;;;5072457;28;20864;-75
2020/12/03 07:40:55;;;;;;;33.55;22.60;;;4.80;99.90;;;;;;5072453;28;20393;-75
2020/12/03 07:43:23;;;;;;;33.60;23.42;;;4.80;99.90;;;;;;5072212;28;20366;-75
2020/12/03 07:45:51;;;;;;;38.25;25.70;;;4.90;99.90;;;;;;5072413;28;20366;-75
2020/12/03 07:48:19;;;;;;;39.58;26.48;;;4.90;99.90;;;;;;5072541;28;20358;-75
2020/12/03 07:51:02;;;;;;;40.42;25.35;;;4.90;99.90;;;;;;5072266;28;20833;-75
2020/12/03 07:53:30;;;;;;;37.55;26.05;;;5.00;99.90;;;;;;5072346;28;20959;-75
2020/12/03 07:55:56;;;;;;;38.72;25.38;;;4.90;99.90;;;;;;5072260;28;20899;-75
2020/12/03 07:58:41;;;;;;;36.97;25.77;;;4.90;99.90;;;;;;5072147;28;20378;-75
2020/12/03 08:01:28;;;;;;;34.90;25.67;;;4.90;99.90;;;;;;5072139;28;20418;-75
2020/12/03 08:04:06;;;;;;;41.47;26.08;;;5.00;99.90;;;;;;5068022;28;20401;-75
2020/12/03 08:06:38;;;;;;;35.72;25.17;;;5.00;99.90;;;;;;5071935;28;20369;-75
2020/12/03 08:09:03;;;;;;;32.72;23.13;;;5.00;99.90;;;;;;5071780;28;20362;-75
2020/12/03 08:12:07;;;;;;;33.00;24.23;;;5.00;99.90;;;;;;5071943;28;20362;-75
2020/12/03 08:14:48;;;;;;;37.67;26.37;;;5.10;99.90;;;;;;5049549;28;20382;-74
2020/12/03 08:17:17;;;;;;;34.37;24.20;;;5.10;99.90;;;;;;5069958;28;20431;-75
2020/12/03 08:20:07;;;;;;;38.38;25.75;;;5.10;99.90;;;;;;5071287;28;20390;-75
2020/12/03 08:22:40;;;;;;;29.40;21.30;;;5.10;99.90;;;;;;5071334;28;20377;-75
2020/12/03 08:25:24;;;;;;;34.40;22.15;;;5.10;99.90;;;;;;5071371;28;20385;-75
2020/12/03 08:27:52;;;;;;;32.60;21.80;;;5.20;99.90;;;;;;5071556;28;20408;-75
2020/12/03 08:30:37;;;;;;;42.47;22.67;;;5.20;99.90;;;;;;5071463;28;20509;-75
2020/12/03 08:33:34;;;;;;;87.90;23.98;;;5.30;99.90;;;;;;5074422;28;20387;-75
2020/12/03 08:36:05;;;;;;;46.65;22.08;;;5.40;99.90;;;;;;5084744;28;20411;-74
2020/12/03 08:38:39;;;;;;;30.85;20.48;;;5.50;99.90;;;;;;5090720;28;20361;-74
2020/12/03 08:41:12;;;;;;;61.50;22.27;;;5.40;99.90;;;;;;5090711;28;20468;-73
2020/12/03 08:43:45;;;;;;;97.00;53.90;;;5.50;99.90;;;;;;5089727;28;20399;-75
2020/12/03 08:46:20;;;;;;;68.43;26.70;;;5.80;99.90;;;;;;5090259;28;20451;-75
2020/12/03 08:48:46;;;;;;;67.38;40.63;;;5.90;99.90;;;;;;5091908;28;20363;-75
2020/12/03 08:51:14;;;;;;;34.28;24.40;;;5.90;99.90;;;;;;5090461;28;20467;-74
2020/12/03 08:53:45;;;;;;;41.28;26.95;;;5.80;99.90;;;;;;5106697;28;20369;-74
2020/12/03 08:56:17;;;;;;;1999.90;955.08;;;5.70;99.90;;;;;;5089665;28;20365;-74
2020/12/03 08:59:04;;;;;;;783.63;493.23;;;6.00;99.90;;;;;;5089808;28;20459;-74
2020/12/03 09:01:58;;;;;;;219.77;128.18;;;6.40;99.90;;;;;;5088531;28;20704;-75
2020/12/03 09:04:26;;;;;;;46.38;31.52;;;6.20;99.90;;;;;;5089646;28;20498;-74
2020/12/03 09:06:56;;;;;;;53.67;35.20;;;6.10;99.90;;;;;;5090007;28;20360;-74
2020/12/03 09:09:24;;;;;;;48.70;31.42;;;6.00;99.90;;;;;;5089159;28;20380;-74
2020/12/03 09:11:51;;;;;;;51.03;36.50;;;5.90;99.90;;;;;;5087890;28;20850;-74
2020/12/03 09:14:19;;;;;;;65.43;40.47;;;5.90;99.90;;;;;;5088357;28;20912;-74
2020/12/03 09:16:53;;;;;;;54.00;34.60;;;5.80;99.90;;;;;;5086326;28;20740;-74
2020/12/03 09:19:23;;;;;;;44.92;30.80;;;5.90;99.90;;;;;;5088206;28;20758;-74
2020/12/03 09:21:50;;;;;;;45.97;30.67;;;5.90;99.90;;;;;;5086911;28;20378;-74
2020/12/03 09:24:22;;;;;;;43.20;28.88;;;5.80;99.90;;;;;;5088359;28;20525;-74
2020/12/03 09:26:49;;;;;;;45.53;29.85;;;5.80;99.90;;;;;;5088030;28;20357;-75
2020/12/03 09:29:17;;;;;;;36.30;24.95;;;5.80;99.90;;;;;;5088539;28;20361;-75
2020/12/03 09:31:44;;;;;;;31.45;22.13;;;5.90;99.90;;;;;;5087195;28;20388;-74
2020/12/03 09:34:10;;;;;;;52.67;33.40;;;5.90;99.90;;;;;;5085841;28;20380;-75
2020/12/03 09:36:38;;;;;;;36.10;23.98;;;6.30;99.90;;;;;;5088045;28;20441;-74
2020/12/03 09:39:06;;;;;;;38.70;25.55;;;6.30;99.90;;;;;;5089596;28;20369;-74
2020/12/03 09:41:33;;;;;;;49.05;32.28;;;6.20;99.90;;;;;;5089104;28;20364;-75
2020/12/03 09:44:05;;;;;;;35.13;24.38;;;6.10;99.90;;;;;;5089334;28;20747;-74
2020/12/03 09:46:34;;;;;;;43.53;29.00;;;6.00;99.90;;;;;;5089714;28;21135;-75
2020/12/03 09:49:00;;;;;;;48.35;32.08;;;6.00;99.90;;;;;;5087674;28;20368;-74
2020/12/03 09:51:26;;;;;;;52.50;31.70;;;6.00;99.90;;;;;;5089315;28;20498;-74
2020/12/03 09:53:53;;;;;;;39.70;27.23;;;6.00;99.90;;;;;;5089529;28;20476;-74
2020/12/03 09:56:21;;;;;;;46.55;31.73;;;6.10;99.90;;;;;;5088766;28;20364;-74
2020/12/03 09:58:57;;;;;;;36.90;25.05;;;6.10;99.90;;;;;;5089208;28;20368;-74
2020/12/03 10:01:43;;;;;;;34.88;23.38;;;6.20;99.90;;;;;;5089234;28;20401;-75
2020/12/03 10:04:40;;;;;;;89.23;46.53;;;6.20;99.90;;;;;;5089208;28;20388;-74
2020/12/03 10:07:30;;;;;;;175.93;85.28;;;6.30;99.90;;;;;;5085980;28;20471;-75
2020/12/03 10:10:30;;;;;;;406.67;210.27;;;6.40;99.90;;;;;;5088084;28;20788;-75
2020/12/03 10:13:39;;;;;;;56.42;32.05;;;6.40;99.90;;;;;;5082960;28;20384;-75
2020/12/03 10:16:09;;;;;;;106.18;54.78;;;6.40;99.90;;;;;;5074990;28;20370;-75
2020/12/03 10:18:50;;;;;;;103.50;56.83;;;6.40;99.90;;;;;;5068299;28;20369;-75
2020/12/03 10:21:34;;;;;;;111.32;62.40;;;6.50;99.90;;;;;;5068546;28;20370;-75
2020/12/03 10:24:06;;;;;;;49.22;29.33;;;6.50;99.90;;;;;;5068048;28;20386;-74
2020/12/03 10:26:53;;;;;;;57.08;32.67;;;6.40;99.90;;;;;;5068517;28;20362;-73
2020/12/03 10:29:21;;;;;;;161.07;94.97;;;6.50;99.90;;;;;;5067980;28;20366;-74
2020/12/03 10:31:48;;;;;;;44.97;30.95;;;6.50;99.90;;;;;;5067682;28;20412;-74
2020/12/03 10:34:15;;;;;;;36.20;26.13;;;6.50;99.90;;;;;;5066378;28;20732;-74
2020/12/03 10:36:54;;;;;;;41.25;27.23;;;6.50;99.90;;;;;;5067982;28;20381;-74
2020/12/03 10:39:21;;;;;;;41.95;28.35;;;6.60;99.90;;;;;;5067720;28;20366;-75
2020/12/03 10:41:52;;;;;;;42.03;29.75;;;6.60;99.90;;;;;;5068761;28;20369;-74
2020/12/03 10:44:21;;;;;;;36.13;24.52;;;6.70;99.90;;;;;;5071569;28;20390;-75
2020/12/03 10:46:52;;;;;;;39.72;27.38;;;6.70;99.90;;;;;;5070921;28;20392;-74
2020/12/03 10:49:23;;;;;;;44.80;28.35;;;6.70;99.90;;;;;;5071729;28;20385;-74
2020/12/03 10:51:49;;;;;;;43.28;27.63;;;6.80;99.90;;;;;;5103993;28;20378;-74
2020/12/03 10:54:23;;;;;;;65.00;38.95;;;6.70;99.90;;;;;;5071036;28;20370;-74
2020/12/03 10:56:51;;;;;;;112.10;62.03;;;6.80;99.90;;;;;;5080791;28;20376;-74
2020/12/03 11:01:52;;;;;;;175.40;83.45;;;6.80;99.90;;;;;;5091621;28;20368;-74
2020/12/03 11:04:18;;;;;;;98.87;51.43;;;7.00;99.90;;;;;;5091879;28;20396;-75
2020/12/03 11:06:44;;;;;;;245.18;121.10;;;6.90;99.90;;;;;;5091695;28;20368;-74
2020/12/03 11:09:17;;;;;;;116.25;62.22;;;6.90;99.90;;;;;;5091391;28;20368;-74
2020/12/03 11:11:43;;;;;;;245.50;128.03;;;6.90;99.90;;;;;;5092031;28;20489;-75
2020/12/03 11:14:10;;;;;;;146.23;86.03;;;6.90;99.90;;;;;;5091467;28;20451;-74
2020/12/03 11:16:42;;;;;;;121.55;69.35;;;6.80;99.90;;;;;;5091408;28;20373;-74
2020/12/03 11:19:15;;;;;;;59.88;38.55;;;6.90;99.90;;;;;;5091831;28;20900;-74
2020/12/03 11:21:59;;;;;;;61.97;40.33;;;6.90;99.90;;;;;;5092277;28;20407;-75
2020/12/03 11:24:31;;;;;;;68.28;45.15;;;7.00;99.90;;;;;;5089956;28;20392;-75
2020/12/03 11:27:03;;;;;;;65.90;45.00;;;7.00;99.90;;;;;;5091786;28;20453;-74
2020/12/03 11:29:36;;;;;;;60.42;39.55;;;7.10;99.90;;;;;;5091393;28;20821;-75
2020/12/03 11:32:03;;;;;;;49.10;33.25;;;7.10;99.90;;;;;;5090793;28;20867;-74
2020/12/03 11:34:36;;;;;;;120.90;59.30;;;7.10;99.90;;;;;;5090559;28;20375;-75
2020/12/03 11:37:02;;;;;;;47.17;31.45;;;7.90;99.90;;;;;;5090787;28;20843;-75
2020/12/03 11:39:30;;;;;;;37.92;27.13;;;7.70;99.90;;;;;;5090821;28;20368;-75
2020/12/03 11:42:37;;;;;;;38.28;27.10;;;7.60;99.90;;;;;;5089838;28;20458;-74
2020/12/03 11:48:27;;;;;;;61.30;39.95;;;7.40;99.90;;;;;;5089869;28;20407;-75
2020/12/03 11:50:53;;;;;;;117.65;74.38;;;7.30;99.90;;;;;;5088265;28;20412;-75
2020/12/03 11:53:22;;;;;;;42.97;30.90;;;7.30;99.90;;;;;;5088389;28;20935;-75
2020/12/03 11:55:49;;;;;;;56.20;39.63;;;7.30;99.90;;;;;;5088835;28;20377;-75
2020/12/03 11:58:15;;;;;;;41.03;29.02;;;7.40;99.90;;;;;;5089619;28;20826;-74
2020/12/03 12:00:43;;;;;;;48.47;27.40;;;7.50;99.90;;;;;;5087390;28;20365;-75
2020/12/03 12:03:15;;;;;;;46.73;33.93;;;8.00;99.90;;;;;;5090301;28;20847;-75
2020/12/03 12:08:15;;;;;;;50.37;36.33;;;7.70;99.90;;;;;;5091074;28;20357;-75
2020/12/03 12:13:14;;;;;;;42.70;30.13;;;7.70;99.90;;;;;;5090563;28;21125;-75
2020/12/03 12:15:40;;;;;;;43.97;30.38;;;7.60;99.90;;;;;;5090137;28;20452;-75
2020/12/03 12:18:06;;;;;;;45.03;31.30;;;7.50;99.90;;;;;;5090826;28;20843;-75
2020/12/03 12:20:32;;;;;;;36.63;26.60;;;7.60;99.90;;;;;;5090654;28;20375;-75
2020/12/03 12:22:57;;;;;;;47.72;32.97;;;7.60;99.90;;;;;;5070006;28;20382;-74
2020/12/03 12:25:23;;;;;;;39.47;27.50;;;7.60;99.90;;;;;;5070901;28;20466;-74
2020/12/03 12:27:49;;;;;;;46.10;30.47;;;7.60;99.90;;;;;;5070085;28;20358;-75
2020/12/03 12:30:15;;;;;;;65.33;44.33;;;7.60;99.90;;;;;;5070649;28;20362;-75
2020/12/03 12:32:41;;;;;;;44.50;32.70;;;7.60;99.90;;;;;;5073771;28;20396;-75
2020/12/03 12:35:07;;;;;;;41.43;28.97;;;7.60;99.90;;;;;;5088778;28;20376;-75
2020/12/03 12:37:32;;;;;;;33.70;23.07;;;7.60;99.90;;;;;;5090866;28;20356;-75
2020/12/03 12:39:58;;;;;;;38.07;25.83;;;7.60;99.90;;;;;;5090410;28;20764;-75
2020/12/03 12:42:26;;;;;;;32.63;23.53;;;7.50;99.90;;;;;;5090224;28;20365;-75
2020/12/03 12:44:53;;;;;;;30.17;23.27;;;7.60;99.90;;;;;;5089540;28;20887;-75
2020/12/03 12:47:18;;;;;;;31.15;22.38;;;7.50;99.90;;;;;;5070905;28;20382;-75
2020/12/03 12:49:44;;;;;;;29.25;20.52;;;7.50;99.90;;;;;;5070594;28;20386;-75
2020/12/03 12:52:10;;;;;;;41.17;27.83;;;7.50;99.90;;;;;;5078230;28;20444;-75
2020/12/03 12:54:36;;;;;;;75.10;41.78;;;7.50;99.90;;;;;;5090282;28;20392;-75
2020/12/03 12:57:03;;;;;;;120.07;77.22;;;7.40;99.90;;;;;;5088898;28;20369;-75
2020/12/03 12:59:28;;;;;;;51.90;34.92;;;7.50;99.90;;;;;;5089598;28;20368;-75
2020/12/03 13:01:54;;;;;;;34.63;25.40;;;7.50;99.90;;;;;;5088955;28;20380;-75
2020/12/03 13:04:22;;;;;;;45.27;23.43;;;7.50;99.90;;;;;;5089038;28;20521;-76
2020/12/03 13:06:54;;;;;;;33.53;23.35;;;7.60;99.90;;;;;;5089287;28;20408;-75
2020/12/03 13:09:20;;;;;;;45.25;34.22;;;7.70;99.90;;;;;;5089643;28;20367;-75
2020/12/03 13:11:46;;;;;;;49.92;37.08;;;7.70;99.90;;;;;;5087721;28;20463;-75
2020/12/03 13:14:12;;;;;;;38.67;27.53;;;7.60;99.90;;;;;;5089935;28;20475;-75